Time;durP1;ratioP1;P1;durP2;ratioP2;P2;SDS_P1;SDS_P2;PMS_P1;PMS_P2;Temp;Humidity;BMP_temperature;BMP_pressure;BME280_temperature;BME280_humidity;BME280_pressure;Samples;Min_cycle;Max_cycle;Signal;HPM_P1;HPM_P2
2023/09/08 00:00:09;;;;;;;4.80;4.33;;;18.60;79.80;;;;;;955327;146;27359;-71
2023/09/08 00:02:34;;;;;;;4.65;4.25;;;18.60;80.40;;;;;;963190;146;27327;-72
2023/09/08 00:05:01;;;;;;;5.33;4.83;;;18.60;81.00;;;;;;962364;146;27415;-75
2023/09/08 00:07:28;;;;;;;4.45;4.05;;;18.60;81.50;;;;;;954679;148;27367;-74
2023/09/08 00:09:54;;;;;;;4.40;3.98;;;18.50;81.90;;;;;;974837;145;27348;-74
2023/09/08 00:12:21;;;;;;;4.22;3.92;;;18.50;82.60;;;;;;958039;148;27322;-74
2023/09/08 00:14:47;;;;;;;5.08;4.12;;;18.50;83.30;;;;;;957958;148;27438;-76
2023/09/08 00:17:14;;;;;;;5.97;4.50;;;18.40;83.90;;;;;;972853;146;27343;-74
2023/09/08 00:19:41;;;;;;;5.20;4.70;;;18.40;84.80;;;;;;969118;145;27367;-74
2023/09/08 00:22:07;;;;;;;5.25;4.85;;;18.40;85.30;;;;;;970607;145;27398;-74
2023/09/08 00:24:34;;;;;;;4.58;4.17;;;18.40;86.20;;;;;;974019;145;27325;-73
2023/09/08 00:27:00;;;;;;;5.92;4.47;;;18.40;87.10;;;;;;973357;145;27738;-74
2023/09/08 00:29:27;;;;;;;5.15;4.65;;;18.40;87.70;;;;;;969022;145;28582;-74
2023/09/08 00:31:54;;;;;;;6.70;4.40;;;18.40;88.30;;;;;;947497;148;27345;-74
2023/09/08 00:34:20;;;;;;;5.22;4.72;;;18.30;88.90;;;;;;966126;145;27736;-74
2023/09/08 00:36:47;;;;;;;5.60;5.00;;;18.30;89.50;;;;;;966198;145;27833;-76
2023/09/08 00:39:13;;;;;;;5.12;4.33;;;18.30;90.00;;;;;;941978;149;27384;-75
2023/09/08 00:41:40;;;;;;;5.28;4.08;;;18.30;90.40;;;;;;957689;148;27303;-73
2023/09/08 00:44:08;;;;;;;4.90;4.50;;;18.20;90.60;;;;;;950092;148;27394;-75
2023/09/08 00:46:33;;;;;;;4.95;4.55;;;18.20;90.70;;;;;;966830;145;27299;-75
2023/09/08 00:49:00;;;;;;;4.10;3.80;;;18.20;90.90;;;;;;976129;145;27349;-75
2023/09/08 00:51:26;;;;;;;4.97;4.58;;;18.10;90.90;;;;;;963145;146;28330;-73
2023/09/08 00:53:53;;;;;;;4.67;4.28;;;18.10;91.10;;;;;;966065;145;27519;-73
2023/09/08 00:56:20;;;;;;;4.35;3.95;;;18.00;91.10;;;;;;957133;148;27423;-74
2023/09/08 00:58:46;;;;;;;5.28;4.20;;;18.00;91.40;;;;;;954092;148;27436;-77
2023/09/08 01:01:13;;;;;;;4.50;4.10;;;17.90;91.60;;;;;;947824;148;27412;-74
2023/09/08 01:03:39;;;;;;;4.53;4.15;;;17.90;91.80;;;;;;958454;148;27440;-76
2023/09/08 01:06:06;;;;;;;5.20;3.92;;;17.80;92.00;;;;;;974244;145;27296;-74
2023/09/08 01:08:33;;;;;;;4.75;4.35;;;17.80;92.10;;;;;;975668;145;27380;-76
2023/09/08 01:10:59;;;;;;;4.37;3.98;;;17.70;92.20;;;;;;956427;147;27352;-74
2023/09/08 01:13:26;;;;;;;5.72;3.70;;;17.70;92.40;;;;;;950864;148;27416;-74
2023/09/08 01:15:52;;;;;;;4.55;3.80;;;17.60;92.50;;;;;;953769;147;27342;-74
2023/09/08 01:18:19;;;;;;;5.03;3.90;;;17.60;92.80;;;;;;978036;145;27309;-74
2023/09/08 01:20:54;;;;;;;4.72;4.28;;;17.50;93.00;;;;;;976407;145;28183;-74
2023/09/08 01:23:36;;;;;;;4.65;4.20;;;17.50;93.30;;;;;;977057;145;27423;-74
2023/09/08 01:26:02;;;;;;;5.10;4.65;;;17.40;93.60;;;;;;949980;147;27457;-74
2023/09/08 01:28:29;;;;;;;5.33;4.75;;;17.40;93.80;;;;;;959226;148;27420;-74
2023/09/08 01:30:56;;;;;;;5.08;4.50;;;17.30;94.30;;;;;;951206;147;27337;-76
2023/09/08 01:33:22;;;;;;;4.72;4.33;;;17.30;94.60;;;;;;977603;145;27419;-74
2023/09/08 01:35:49;;;;;;;4.37;4.00;;;17.30;94.80;;;;;;968857;146;27413;-74
2023/09/08 01:38:15;;;;;;;4.58;4.28;;;17.20;95.20;;;;;;965252;147;27699;-72
2023/09/08 01:40:42;;;;;;;4.70;4.30;;;17.20;95.40;;;;;;963100;147;27344;-76
2023/09/08 01:43:09;;;;;;;4.95;4.15;;;17.10;95.60;;;;;;974853;145;27336;-74
2023/09/08 01:45:35;;;;;;;4.87;4.22;;;17.10;96.00;;;;;;969492;145;27421;-74
2023/09/08 01:48:02;;;;;;;5.55;4.30;;;17.10;96.30;;;;;;969788;145;27372;-74
2023/09/08 01:50:28;;;;;;;5.00;4.47;;;17.00;96.70;;;;;;968674;145;27415;-75
2023/09/08 01:52:55;;;;;;;4.83;4.30;;;17.00;97.00;;;;;;970228;145;27343;-74
2023/09/08 01:55:21;;;;;;;4.92;4.42;;;17.00;97.30;;;;;;968143;145;28612;-75
2023/09/08 01:57:48;;;;;;;4.80;4.40;;;17.00;97.50;;;;;;970957;145;27787;-76
2023/09/08 02:00:15;;;;;;;4.72;4.33;;;17.00;97.80;;;;;;967348;145;27438;-76
2023/09/08 02:02:41;;;;;;;4.65;4.25;;;17.00;98.10;;;;;;960659;145;27911;-76
2023/09/08 02:05:09;;;;;;;4.20;3.90;;;16.90;98.20;;;;;;959896;147;27799;-76
2023/09/08 02:07:34;;;;;;;4.95;4.55;;;16.90;98.30;;;;;;960233;146;27326;-76
2023/09/08 02:10:01;;;;;;;5.00;4.60;;;16.90;98.40;;;;;;959106;147;27413;-76
2023/09/08 02:12:28;;;;;;;5.22;4.72;;;16.90;98.80;;;;;;960459;147;27768;-76
2023/09/08 02:14:54;;;;;;;6.33;4.60;;;16.90;99.20;;;;;;957118;147;27346;-76
2023/09/08 02:17:21;;;;;;;5.42;4.83;;;16.80;99.60;;;;;;960163;147;27320;-76
2023/09/08 02:19:47;;;;;;;4.62;4.22;;;16.80;99.90;;;;;;957391;147;27373;-76
2023/09/08 02:22:14;;;;;;;5.17;4.67;;;16.80;99.90;;;;;;960987;147;27333;-76
2023/09/08 02:24:41;;;;;;;6.30;5.70;;;16.80;99.90;;;;;;957940;147;27340;-76
2023/09/08 02:27:07;;;;;;;6.25;4.55;;;16.80;99.90;;;;;;958860;147;27375;-76
2023/09/08 02:29:35;;;;;;;5.72;5.00;;;16.80;99.90;;;;;;957305;147;27303;-76
2023/09/08 02:32:00;;;;;;;5.12;4.72;;;16.80;99.90;;;;;;959397;146;27325;-76
2023/09/08 02:34:27;;;;;;;4.83;4.42;;;16.80;99.90;;;;;;957604;147;27345;-76
2023/09/08 02:36:54;;;;;;;5.60;5.10;;;16.80;99.90;;;;;;955943;147;27333;-76
2023/09/08 02:39:20;;;;;;;5.12;4.62;;;16.80;99.90;;;;;;962767;147;27261;-76
2023/09/08 02:41:47;;;;;;;5.50;5.00;;;16.80;99.90;;;;;;957710;147;27319;-76
2023/09/08 02:44:13;;;;;;;6.00;4.65;;;16.80;99.90;;;;;;958179;147;27393;-76
2023/09/08 02:46:40;;;;;;;5.28;4.87;;;16.80;99.90;;;;;;957237;147;27357;-76
2023/09/08 02:49:09;;;;;;;4.90;4.50;;;16.80;99.90;;;;;;958684;147;27328;-76
2023/09/08 02:51:36;;;;;;;5.83;4.72;;;16.80;99.90;;;;;;960396;146;27392;-76
2023/09/08 02:54:03;;;;;;;5.72;5.12;;;16.80;99.90;;;;;;959742;147;27330;-76
2023/09/08 02:56:29;;;;;;;5.72;5.15;;;16.80;99.90;;;;;;960976;147;27380;-76
2023/09/08 02:58:56;;;;;;;5.47;4.87;;;16.80;99.90;;;;;;959607;147;27719;-76
2023/09/08 03:01:22;;;;;;;5.10;4.70;;;16.80;99.90;;;;;;959399;147;27494;-76
2023/09/08 03:03:49;;;;;;;5.03;4.62;;;16.80;99.90;;;;;;961773;147;27320;-76
2023/09/08 03:06:15;;;;;;;5.78;4.80;;;16.80;99.90;;;;;;959793;147;27286;-77
2023/09/08 03:08:42;;;;;;;7.83;5.12;;;16.80;99.90;;;;;;957268;146;27411;-78
2023/09/08 03:11:09;;;;;;;4.75;4.35;;;16.80;99.90;;;;;;957441;147;27458;-77
2023/09/08 03:13:35;;;;;;;5.55;4.70;;;16.80;99.90;;;;;;958589;146;27661;-77
2023/09/08 03:16:05;;;;;;;5.45;4.95;;;16.70;99.90;;;;;;958629;146;27299;-77
2023/09/08 03:18:32;;;;;;;5.62;4.83;;;16.70;99.90;;;;;;958087;147;27397;-77
2023/09/08 03:20:59;;;;;;;4.55;4.22;;;16.70;99.90;;;;;;956547;147;27352;-77
2023/09/08 03:23:25;;;;;;;5.78;4.78;;;16.70;99.90;;;;;;959640;147;28159;-77
2023/09/08 03:25:51;;;;;;;4.60;4.20;;;16.70;99.90;;;;;;958745;146;27298;-77
2023/09/08 03:28:18;;;;;;;4.83;4.33;;;16.70;99.90;;;;;;956059;147;27381;-77
2023/09/08 03:30:45;;;;;;;5.00;4.60;;;16.70;99.90;;;;;;958843;147;27411;-76
2023/09/08 03:33:11;;;;;;;5.28;4.87;;;16.70;99.90;;;;;;955887;147;27335;-77
2023/09/08 03:35:38;;;;;;;5.10;4.70;;;16.70;99.90;;;;;;958934;147;27386;-77
2023/09/08 03:38:04;;;;;;;5.25;4.78;;;16.70;99.90;;;;;;958160;146;27419;-77
2023/09/08 03:40:31;;;;;;;4.92;4.53;;;16.70;99.90;;;;;;957614;147;27275;-77
2023/09/08 03:42:57;;;;;;;5.95;4.92;;;16.60;99.90;;;;;;956996;147;27441;-78
2023/09/08 03:45:24;;;;;;;6.10;5.55;;;16.60;99.90;;;;;;958772;146;27331;-77
2023/09/08 03:47:51;;;;;;;4.90;4.50;;;16.60;99.90;;;;;;958001;147;27313;-77
2023/09/08 03:50:17;;;;;;;5.85;4.85;;;16.60;99.90;;;;;;956123;147;27411;-78
2023/09/08 03:52:44;;;;;;;6.90;5.28;;;16.60;99.90;;;;;;959846;147;27395;-77
2023/09/08 03:55:11;;;;;;;6.17;5.43;;;16.60;99.90;;;;;;957048;146;28431;-77
2023/09/08 03:57:37;;;;;;;5.17;4.78;;;16.50;99.90;;;;;;958085;147;27388;-77
2023/09/08 04:00:07;;;;;;;5.25;4.80;;;16.50;99.90;;;;;;960803;146;27392;-77
2023/09/08 04:02:30;;;;;;;6.10;5.58;;;16.50;99.90;;;;;;954841;147;27375;-75
2023/09/08 04:04:57;;;;;;;5.30;4.80;;;16.50;99.90;;;;;;952056;148;27358;-77
2023/09/08 04:07:23;;;;;;;5.08;4.65;;;16.40;99.90;;;;;;947975;149;27707;-77
2023/09/08 04:09:50;;;;;;;5.03;4.62;;;16.40;99.90;;;;;;948442;149;27376;-77
2023/09/08 04:12:16;;;;;;;4.92;4.53;;;16.40;99.90;;;;;;950148;149;27429;-77
2023/09/08 04:14:43;;;;;;;5.00;4.50;;;16.40;99.90;;;;;;948962;149;27364;-77
2023/09/08 04:17:10;;;;;;;5.17;4.62;;;16.30;99.90;;;;;;952188;149;27350;-77
2023/09/08 04:19:37;;;;;;;5.20;4.70;;;16.30;99.90;;;;;;950476;149;27303;-76
2023/09/08 04:22:03;;;;;;;5.97;4.53;;;16.30;99.90;;;;;;948950;148;27307;-76
2023/09/08 04:24:29;;;;;;;5.10;4.70;;;16.20;99.90;;;;;;951227;149;27463;-76
2023/09/08 04:26:56;;;;;;;4.70;4.28;;;16.20;99.90;;;;;;950247;149;27457;-76
2023/09/08 04:29:23;;;;;;;5.08;4.65;;;16.20;99.90;;;;;;948818;149;27299;-76
2023/09/08 04:31:49;;;;;;;4.85;4.45;;;16.20;99.90;;;;;;945403;149;27463;-76
2023/09/08 04:34:16;;;;;;;5.35;4.20;;;16.10;99.90;;;;;;948828;149;27384;-76
2023/09/08 04:36:42;;;;;;;4.80;4.40;;;16.10;99.90;;;;;;952033;149;27357;-76
2023/09/08 04:39:11;;;;;;;4.80;4.40;;;16.10;99.90;;;;;;949324;149;27888;-76
2023/09/08 04:41:36;;;;;;;4.60;4.08;;;16.00;99.90;;;;;;947208;148;27480;-76
2023/09/08 04:44:02;;;;;;;5.00;4.60;;;16.00;99.90;;;;;;951395;149;27300;-76
2023/09/08 04:46:29;;;;;;;4.63;4.23;;;16.00;99.90;;;;;;950909;149;27347;-76
2023/09/08 04:48:55;;;;;;;5.17;4.47;;;16.00;99.90;;;;;;949112;149;27354;-76
2023/09/08 04:51:22;;;;;;;5.75;4.90;;;15.90;99.90;;;;;;946152;148;27384;-76
2023/09/08 04:53:48;;;;;;;4.93;4.53;;;15.90;99.90;;;;;;948603;149;27300;-76
2023/09/08 04:56:15;;;;;;;4.80;4.40;;;15.90;99.90;;;;;;950668;149;27861;-76
2023/09/08 04:58:42;;;;;;;5.43;4.70;;;15.90;99.90;;;;;;951211;148;27335;-76
2023/09/08 05:01:08;;;;;;;5.40;4.90;;;15.90;99.90;;;;;;934019;149;28478;-76
2023/09/08 05:03:35;;;;;;;5.30;4.60;;;15.90;99.90;;;;;;934442;151;27508;-76
2023/09/08 05:06:01;;;;;;;5.70;5.20;;;15.80;99.90;;;;;;933982;151;27432;-76
2023/09/08 05:08:28;;;;;;;5.30;4.80;;;15.90;99.90;;;;;;934170;149;27532;-76
2023/09/08 05:10:55;;;;;;;6.00;5.45;;;15.90;99.90;;;;;;917191;151;27500;-76
2023/09/08 05:13:26;;;;;;;4.83;4.42;;;16.00;99.90;;;;;;933015;149;27421;-76
2023/09/08 05:15:48;;;;;;;6.37;5.28;;;16.10;99.90;;;;;;933342;149;27411;-76
2023/09/08 05:18:14;;;;;;;6.97;5.87;;;16.30;99.90;;;;;;933998;149;27847;-76
2023/09/08 05:20:41;;;;;;;4.85;4.35;;;16.50;99.90;;;;;;933606;149;27359;-76
2023/09/08 05:23:08;;;;;;;6.25;4.97;;;16.80;99.90;;;;;;933915;149;27342;-76
2023/09/08 05:25:34;;;;;;;5.55;5.05;;;17.10;99.90;;;;;;933544;149;27352;-76
2023/09/08 05:28:02;;;;;;;4.80;4.40;;;17.40;99.90;;;;;;933749;149;27331;-76
2023/09/08 05:30:27;;;;;;;6.12;5.50;;;17.80;99.90;;;;;;933882;149;27470;-76
2023/09/08 05:32:54;;;;;;;4.92;4.42;;;18.20;99.90;;;;;;936198;149;27341;-76
2023/09/08 05:35:20;;;;;;;4.53;4.12;;;18.70;99.90;;;;;;937450;150;27403;-76
2023/09/08 05:37:47;;;;;;;4.47;4.03;;;19.20;99.90;;;;;;917846;152;27350;-76
2023/09/08 05:40:14;;;;;;;4.20;3.90;;;19.70;99.90;;;;;;938164;149;27406;-76
2023/09/08 05:42:40;;;;;;;4.72;4.33;;;20.30;99.90;;;;;;918008;152;27498;-76
2023/09/08 05:45:07;;;;;;;4.05;3.77;;;20.90;99.90;;;;;;933804;149;27332;-76
2023/09/08 05:47:35;;;;;;;4.78;4.37;;;21.40;99.90;;;;;;934253;149;27429;-77
2023/09/08 05:50:00;;;;;;;4.25;3.85;;;22.10;99.90;;;;;;937575;149;27377;-77
2023/09/08 05:52:28;;;;;;;5.47;4.03;;;22.70;99.90;;;;;;931101;150;27389;-74
2023/09/08 05:54:53;;;;;;;3.67;3.35;;;23.40;99.90;;;;;;933203;149;27422;-74
2023/09/08 05:57:20;;;;;;;4.42;3.90;;;24.00;99.90;;;;;;933206;149;27330;-74
2023/09/08 05:59:46;;;;;;;4.47;4.05;;;24.70;99.00;;;;;;936943;149;27765;-74
2023/09/08 06:02:13;;;;;;;4.35;3.95;;;25.40;96.80;;;;;;934257;149;27354;-74
2023/09/08 06:04:40;;;;;;;3.98;3.67;;;26.10;94.70;;;;;;946242;148;27387;-74
2023/09/08 06:07:06;;;;;;;4.42;4.03;;;26.80;92.00;;;;;;950724;148;27899;-74
2023/09/08 06:09:33;;;;;;;4.50;3.60;;;27.40;89.20;;;;;;957777;147;27436;-75
2023/09/08 06:11:59;;;;;;;4.45;3.75;;;28.10;85.50;;;;;;956478;148;27462;-74
2023/09/08 06:14:26;;;;;;;4.03;3.72;;;28.70;81.40;;;;;;977234;145;27457;-74
2023/09/08 06:16:52;;;;;;;4.65;4.25;;;29.40;78.80;;;;;;976744;145;27334;-75
2023/09/08 06:19:19;;;;;;;4.28;3.98;;;29.90;75.50;;;;;;977798;145;27297;-74
2023/09/08 06:21:46;;;;;;;5.12;3.95;;;30.50;73.50;;;;;;976503;145;27390;-74
2023/09/08 06:24:12;;;;;;;4.10;3.70;;;31.10;71.20;;;;;;966971;145;27421;-75
2023/09/08 06:26:39;;;;;;;6.15;3.67;;;31.60;69.40;;;;;;954488;148;28265;-75
2023/09/08 06:29:05;;;;;;;4.05;3.65;;;32.20;67.50;;;;;;952043;148;27364;-75
2023/09/08 06:31:32;;;;;;;5.08;4.03;;;32.60;65.70;;;;;;967785;145;27458;-74
2023/09/08 06:33:59;;;;;;;3.80;3.45;;;33.10;64.20;;;;;;958261;148;26797;-74
2023/09/08 06:36:25;;;;;;;3.72;3.42;;;33.60;63.00;;;;;;967615;145;27406;-74
2023/09/08 06:38:52;;;;;;;5.58;4.00;;;34.10;61.60;;;;;;958056;148;26625;-75
2023/09/08 06:41:18;;;;;;;4.00;3.67;;;34.60;60.50;;;;;;974992;145;27406;-75
2023/09/08 06:43:45;;;;;;;7.72;3.55;;;35.00;59.50;;;;;;969023;145;26219;-74
2023/09/08 06:46:12;;;;;;;3.77;3.50;;;35.40;58.50;;;;;;968012;145;26251;-74
2023/09/08 06:48:38;;;;;;;4.37;3.87;;;35.80;57.50;;;;;;951365;148;26244;-74
2023/09/08 06:51:05;;;;;;;7.10;3.90;;;36.20;56.60;;;;;;951895;148;26243;-75
2023/09/08 06:53:32;;;;;;;3.55;3.25;;;36.60;56.60;;;;;;957589;147;26265;-74
2023/09/08 06:55:58;;;;;;;5.28;3.45;;;36.90;55.30;;;;;;959306;147;26222;-75
2023/09/08 06:58:25;;;;;;;7.95;3.77;;;37.30;54.40;;;;;;967391;145;26307;-75
2023/09/08 07:00:54;;;;;;;3.85;3.55;;;37.70;53.40;;;;;;967003;145;26352;-75
2023/09/08 07:03:18;;;;;;;4.97;3.42;;;38.00;52.60;;;;;;967083;145;26300;-75
2023/09/08 07:05:44;;;;;;;3.87;3.55;;;38.30;51.90;;;;;;936138;148;26326;-75
2023/09/08 07:08:11;;;;;;;3.50;3.20;;;38.60;51.30;;;;;;937797;150;26363;-75
2023/09/08 07:10:38;;;;;;;3.35;3.05;;;38.80;50.70;;;;;;958351;147;26321;-75
2023/09/08 07:13:04;;;;;;;3.65;3.30;;;39.20;50.40;;;;;;960190;147;26188;-75
2023/09/08 07:15:31;;;;;;;4.30;3.50;;;39.50;49.40;;;;;;936657;149;26333;-75
2023/09/08 07:17:57;;;;;;;3.65;3.35;;;39.80;49.00;;;;;;960561;146;26358;-74
2023/09/08 07:20:24;;;;;;;4.05;3.25;;;40.20;48.40;;;;;;934668;149;26259;-75
2023/09/08 07:22:50;;;;;;;4.60;3.08;;;40.40;47.80;;;;;;950682;147;26286;-75
2023/09/08 07:25:17;;;;;;;4.17;3.00;;;40.70;47.20;;;;;;949921;147;26318;-75
2023/09/08 07:27:44;;;;;;;5.22;3.20;;;41.00;46.60;;;;;;936852;149;26330;-75
2023/09/08 07:30:10;;;;;;;4.60;3.10;;;41.30;46.00;;;;;;941439;149;26557;-75
2023/09/08 07:32:37;;;;;;;6.55;3.08;;;41.60;45.50;;;;;;948873;146;26315;-75
2023/09/08 07:35:03;;;;;;;3.17;2.90;;;41.80;44.90;;;;;;949470;147;26234;-75
2023/09/08 07:37:30;;;;;;;5.78;3.02;;;42.10;44.30;;;;;;933379;150;26362;-75
2023/09/08 07:39:57;;;;;;;3.20;2.90;;;42.30;43.70;;;;;;926704;150;26270;-75
2023/09/08 07:42:25;;;;;;;3.58;2.80;;;42.60;43.40;;;;;;939650;149;26337;-75
2023/09/08 07:44:50;;;;;;;5.15;2.60;;;42.80;43.10;;;;;;962447;147;26309;-75
2023/09/08 07:47:16;;;;;;;4.08;2.62;;;43.00;42.70;;;;;;949008;148;26294;-75
2023/09/08 07:49:43;;;;;;;3.80;2.90;;;43.30;42.10;;;;;;949523;148;26304;-75
2023/09/08 07:52:09;;;;;;;3.50;2.70;;;43.50;41.90;;;;;;945679;148;26238;-75
2023/09/08 07:54:36;;;;;;;3.05;2.80;;;43.80;41.40;;;;;;951505;148;26265;-75
2023/09/08 07:57:03;;;;;;;6.30;2.67;;;44.00;40.90;;;;;;947089;148;26253;-75
2023/09/08 07:59:29;;;;;;;2.98;2.70;;;44.30;40.40;;;;;;945450;148;26896;-75
2023/09/08 08:01:56;;;;;;;3.47;2.50;;;44.60;40.10;;;;;;948181;148;26247;-75
2023/09/08 08:04:22;;;;;;;3.45;3.12;;;44.90;39.80;;;;;;947365;148;26402;-75
2023/09/08 08:06:49;;;;;;;2.98;2.77;;;45.20;39.10;;;;;;943893;148;26277;-75
2023/09/08 08:09:16;;;;;;;3.10;2.90;;;45.50;38.60;;;;;;944054;149;26261;-75
2023/09/08 08:11:42;;;;;;;3.37;2.55;;;45.70;38.70;;;;;;952772;149;26268;-75
2023/09/08 08:14:09;;;;;;;2.58;2.33;;;46.00;37.70;;;;;;953444;147;26330;-75
2023/09/08 08:16:35;;;;;;;5.72;2.50;;;46.20;37.20;;;;;;954350;147;26321;-75
2023/09/08 08:19:03;;;;;;;4.28;2.98;;;46.40;36.70;;;;;;953250;148;26350;-75
2023/09/08 08:21:29;;;;;;;2.50;2.30;;;46.60;36.40;;;;;;947230;148;26331;-76
2023/09/08 08:23:55;;;;;;;3.80;2.67;;;46.70;36.10;;;;;;944031;149;26235;-76
2023/09/08 08:26:22;;;;;;;2.15;2.05;;;46.90;35.80;;;;;;944429;149;26330;-76
2023/09/08 08:28:48;;;;;;;5.50;2.60;;;47.00;35.40;;;;;;945623;149;26259;-76
2023/09/08 08:31:15;;;;;;;2.60;2.40;;;47.20;35.00;;;;;;942661;149;26272;-76
2023/09/08 08:33:42;;;;;;;2.52;2.25;;;47.30;34.10;;;;;;944852;149;26276;-76
2023/09/08 08:36:09;;;;;;;2.62;2.15;;;47.30;33.90;;;;;;944172;149;26223;-76
2023/09/08 08:38:35;;;;;;;4.25;2.25;;;47.30;33.40;;;;;;942830;149;26398;-76
2023/09/08 08:41:04;;;;;;;2.62;2.10;;;47.20;32.90;;;;;;942381;149;26260;-76
2023/09/08 08:43:31;;;;;;;2.35;2.10;;;47.10;32.90;;;;;;943231;149;26280;-76
2023/09/08 08:45:57;;;;;;;3.90;2.47;;;47.00;32.90;;;;;;953375;147;26237;-76
2023/09/08 08:48:25;;;;;;;2.50;2.30;;;46.90;32.60;;;;;;954161;147;26239;-76
2023/09/08 08:50:51;;;;;;;2.35;2.15;;;46.70;32.60;;;;;;940737;149;26257;-76
2023/09/08 08:53:17;;;;;;;2.30;2.20;;;46.70;32.80;;;;;;953058;148;26324;-76
2023/09/08 08:55:44;;;;;;;4.12;2.50;;;46.70;32.70;;;;;;953484;149;26325;-75
2023/09/08 08:58:10;;;;;;;2.40;2.20;;;46.70;32.30;;;;;;954057;148;26219;-75
2023/09/08 09:00:37;;;;;;;2.22;2.12;;;46.70;32.10;;;;;;938709;149;26794;-75
2023/09/08 09:03:03;;;;;;;2.50;2.30;;;46.60;32.00;;;;;;945961;149;26252;-75
2023/09/08 09:05:30;;;;;;;3.27;2.33;;;46.60;32.30;;;;;;944603;149;26376;-75
2023/09/08 09:07:57;;;;;;;2.67;2.47;;;46.60;32.00;;;;;;930803;150;26316;-75
2023/09/08 09:10:23;;;;;;;2.87;2.40;;;46.50;31.70;;;;;;960393;147;26350;-75
2023/09/08 09:12:50;;;;;;;3.42;2.10;;;46.40;31.50;;;;;;958875;146;26259;-75
2023/09/08 09:15:17;;;;;;;2.75;2.35;;;46.40;31.50;;;;;;957930;145;26245;-75
2023/09/08 09:17:44;;;;;;;2.45;2.25;;;46.30;31.50;;;;;;960563;147;26229;-75
2023/09/08 09:20:13;;;;;;;2.30;2.10;;;46.20;31.40;;;;;;960014;146;26673;-75
2023/09/08 09:22:39;;;;;;;2.77;2.37;;;46.20;32.10;;;;;;959150;147;28040;-75
2023/09/08 09:25:07;;;;;;;2.72;2.40;;;46.10;31.30;;;;;;961672;147;26267;-75
2023/09/08 09:27:32;;;;;;;2.75;2.52;;;46.00;31.10;;;;;;959879;147;28316;-75
2023/09/08 09:29:59;;;;;;;2.58;2.37;;;45.80;31.00;;;;;;961904;147;26212;-76
2023/09/08 09:32:27;;;;;;;2.20;2.10;;;45.70;31.00;;;;;;959603;147;26306;-76
2023/09/08 09:34:56;;;;;;;2.47;2.27;;;45.60;31.00;;;;;;959229;147;26318;-76
2023/09/08 09:37:19;;;;;;;2.60;2.40;;;45.40;30.90;;;;;;959317;147;26334;-76
2023/09/08 09:39:51;;;;;;;2.67;2.47;;;45.20;31.10;;;;;;961270;147;26209;-76
2023/09/08 09:42:17;;;;;;;2.58;2.37;;;45.10;31.30;;;;;;958507;147;26332;-76
2023/09/08 09:44:44;;;;;;;2.58;2.37;;;44.90;31.30;;;;;;958717;147;26227;-76
2023/09/08 09:47:11;;;;;;;2.70;2.50;;;44.70;31.20;;;;;;961917;146;26244;-76
2023/09/08 09:49:46;;;;;;;3.67;2.30;;;44.50;31.00;;;;;;959407;147;26244;-76
2023/09/08 09:52:15;;;;;;;2.15;2.05;;;44.40;31.10;;;;;;961924;147;26378;-75
2023/09/08 09:54:42;;;;;;;2.58;2.30;;;44.10;31.10;;;;;;961598;147;26288;-76
2023/09/08 09:57:08;;;;;;;2.55;2.35;;;43.80;31.00;;;;;;961080;147;28178;-76
2023/09/08 09:59:35;;;;;;;3.00;2.50;;;43.50;31.00;;;;;;955319;147;26332;-76
2023/09/08 10:02:02;;;;;;;3.80;2.47;;;43.10;30.90;;;;;;957677;147;26309;-75
2023/09/08 10:04:28;;;;;;;3.02;2.25;;;42.60;31.00;;;;;;956871;147;26599;-76
2023/09/08 10:06:57;;;;;;;3.30;2.60;;;42.20;31.30;;;;;;956331;147;26378;-76
2023/09/08 10:09:22;;;;;;;2.85;2.65;;;41.80;31.10;;;;;;933547;149;26675;-76
2023/09/08 10:11:48;;;;;;;2.75;2.55;;;41.40;32.00;;;;;;958832;147;26219;-76
2023/09/08 10:14:14;;;;;;;2.77;2.58;;;41.00;32.30;;;;;;936570;149;26260;-76
2023/09/08 10:16:41;;;;;;;3.02;2.77;;;40.70;32.40;;;;;;949239;147;26264;-76
2023/09/08 10:19:08;;;;;;;2.72;2.52;;;40.40;32.20;;;;;;925919;151;26274;-76
2023/09/08 10:21:34;;;;;;;2.85;2.65;;;40.00;32.30;;;;;;951820;147;26399;-76
2023/09/08 10:24:01;;;;;;;3.33;2.40;;;39.70;32.70;;;;;;956871;147;26286;-76
2023/09/08 10:26:28;;;;;;;3.45;2.70;;;39.30;32.90;;;;;;953701;147;26287;-76
2023/09/08 10:28:57;;;;;;;2.75;2.55;;;39.00;33.10;;;;;;955617;147;27463;-76
2023/09/08 10:31:23;;;;;;;2.83;2.62;;;38.60;33.30;;;;;;954711;147;26275;-76
2023/09/08 10:33:50;;;;;;;4.12;3.10;;;38.30;33.50;;;;;;954546;147;26299;-75
2023/09/08 10:36:16;;;;;;;3.27;2.85;;;38.00;33.90;;;;;;955665;147;27353;-76
2023/09/08 10:38:47;;;;;;;5.05;2.98;;;37.70;34.30;;;;;;951839;147;26268;-76
2023/09/08 10:41:16;;;;;;;4.08;3.70;;;37.40;34.40;;;;;;955752;147;27611;-76
2023/09/08 10:43:45;;;;;;;6.33;3.20;;;37.20;34.40;;;;;;930756;149;27911;-76
2023/09/08 10:46:12;;;;;;;2.85;2.52;;;36.90;34.40;;;;;;954643;147;27505;-76
2023/09/08 10:48:41;;;;;;;3.20;2.90;;;36.60;34.60;;;;;;933192;149;27774;-76
2023/09/08 10:51:08;;;;;;;3.08;2.62;;;36.40;35.00;;;;;;932630;149;27365;-76
2023/09/08 10:53:34;;;;;;;3.05;2.72;;;36.10;35.30;;;;;;932853;149;27369;-76
2023/09/08 10:56:01;;;;;;;7.72;3.22;;;35.80;35.50;;;;;;934414;150;27465;-75
2023/09/08 10:58:31;;;;;;;3.20;2.90;;;35.70;36.00;;;;;;949335;146;27419;-75
2023/09/08 11:00:59;;;;;;;3.02;2.17;;;35.50;36.30;;;;;;948965;147;27427;-76
2023/09/08 11:03:39;;;;;;;3.27;2.47;;;35.40;36.30;;;;;;949321;147;27493;-76
2023/09/08 11:06:05;;;;;;;2.98;2.75;;;35.20;36.30;;;;;;939834;149;27382;-76
2023/09/08 11:08:31;;;;;;;2.60;2.37;;;35.00;36.30;;;;;;952623;147;27373;-76
2023/09/08 11:10:58;;;;;;;3.92;2.67;;;34.80;36.30;;;;;;942637;150;27352;-75
2023/09/08 11:13:25;;;;;;;3.05;2.60;;;34.60;36.40;;;;;;938841;150;27744;-76
2023/09/08 11:15:54;;;;;;;3.25;2.95;;;34.40;36.60;;;;;;960777;147;27910;-73
2023/09/08 11:18:29;;;;;;;4.92;3.00;;;34.20;36.90;;;;;;953089;150;27317;-73
2023/09/08 11:20:56;;;;;;;3.25;2.95;;;34.00;37.20;;;;;;954149;148;27316;-73
2023/09/08 11:23:23;;;;;;;3.33;2.77;;;33.90;37.40;;;;;;930117;151;27380;-76
2023/09/08 11:25:51;;;;;;;3.50;2.72;;;33.60;37.60;;;;;;937760;150;27373;-75
2023/09/08 11:28:18;;;;;;;3.62;2.65;;;33.50;37.70;;;;;;938124;150;27346;-74
2023/09/08 11:30:47;;;;;;;4.45;2.98;;;33.30;38.00;;;;;;939663;151;27428;-74
2023/09/08 11:33:17;;;;;;;3.20;2.70;;;33.20;38.40;;;;;;950069;148;27756;-74
2023/09/08 11:35:46;;;;;;;2.90;2.70;;;33.10;38.60;;;;;;937678;150;27761;-75
2023/09/08 11:38:12;;;;;;;3.00;2.80;;;32.90;38.80;;;;;;938099;150;27411;-77
2023/09/08 11:40:39;;;;;;;3.22;2.77;;;32.90;38.80;;;;;;936267;151;27370;-74
2023/09/08 11:43:06;;;;;;;3.25;2.95;;;32.80;39.00;;;;;;953166;148;26673;-73
2023/09/08 11:45:32;;;;;;;3.00;2.70;;;32.80;39.10;;;;;;953641;147;27410;-74
2023/09/08 11:47:59;;;;;;;3.08;2.87;;;32.70;39.10;;;;;;943423;150;27372;-74
2023/09/08 11:50:25;;;;;;;3.45;3.20;;;32.70;39.30;;;;;;937042;150;27358;-75
2023/09/08 11:52:52;;;;;;;3.52;3.17;;;32.70;39.50;;;;;;959816;147;27326;-73
2023/09/08 11:55:19;;;;;;;2.90;2.70;;;32.70;39.50;;;;;;937087;150;27872;-73
2023/09/08 11:57:57;;;;;;;3.02;2.83;;;32.70;39.50;;;;;;950749;148;27410;-75
2023/09/08 12:00:22;;;;;;;3.40;3.10;;;32.80;39.90;;;;;;958524;147;27252;-77
2023/09/08 12:02:47;;;;;;;2.87;2.62;;;32.80;40.00;;;;;;930443;151;27360;-74
2023/09/08 12:05:14;;;;;;;2.83;2.62;;;32.80;39.80;;;;;;941916;150;27357;-73
2023/09/08 12:07:40;;;;;;;3.20;2.90;;;32.80;39.90;;;;;;950726;147;27438;-74
2023/09/08 12:10:10;;;;;;;2.83;2.60;;;32.80;39.80;;;;;;948683;147;27344;-75
2023/09/08 12:12:43;;;;;;;3.15;2.87;;;32.70;39.80;;;;;;953122;148;27486;-74
2023/09/08 12:15:09;;;;;;;2.87;2.67;;;32.70;40.00;;;;;;953976;148;27449;-73
2023/09/08 12:17:36;;;;;;;3.80;2.90;;;32.50;40.00;;;;;;957321;147;27345;-75
2023/09/08 12:20:02;;;;;;;3.15;2.87;;;32.50;40.10;;;;;;933126;149;27340;-74
2023/09/08 12:22:29;;;;;;;2.98;2.77;;;32.50;40.20;;;;;;947208;146;27428;-77
2023/09/08 12:24:59;;;;;;;3.15;2.92;;;32.40;40.30;;;;;;944796;148;28350;-73
2023/09/08 12:27:25;;;;;;;2.98;2.77;;;32.30;40.60;;;;;;934321;150;28137;-80
2023/09/08 12:29:57;;;;;;;3.42;2.90;;;32.30;40.90;;;;;;936264;150;27311;-78
2023/09/08 12:32:23;;;;;;;2.95;2.67;;;32.30;40.70;;;;;;949959;147;27751;-80
2023/09/08 12:34:50;;;;;;;4.33;2.83;;;32.30;40.70;;;;;;949871;147;27326;-79
2023/09/08 12:37:17;;;;;;;3.62;2.98;;;32.20;41.10;;;;;;926908;150;27353;-80
2023/09/08 12:39:43;;;;;;;2.77;2.60;;;32.20;41.00;;;;;;926872;150;27420;-79
2023/09/08 12:42:10;;;;;;;4.25;3.10;;;32.10;40.40;;;;;;951023;147;27344;-79
2023/09/08 12:44:36;;;;;;;3.15;2.83;;;32.10;41.20;;;;;;940447;148;27552;-79